Time;durP1;ratioP1;P1;durP2;ratioP2;P2;SDS_P1;SDS_P2;PMS_P1;PMS_P2;Temp;Humidity;BMP_temperature;BMP_pressure;BME280_temperature;BME280_humidity;BME280_pressure;Samples;Min_cycle;Max_cycle;Signal;HPM_P1;HPM_P2
2024/02/19 00:01:05;;;;;;;3.47;1.43;;;9.60;99.90;;;;;;5012087;28;20456;-72
2024/02/19 00:03:32;;;;;;;2.27;1.70;;;9.60;99.90;;;;;;5009055;28;20552;-72
2024/02/19 00:05:59;;;;;;;5.53;1.47;;;9.60;99.90;;;;;;5011674;28;20458;-71
2024/02/19 00:08:27;;;;;;;3.97;1.50;;;9.60;99.90;;;;;;5010958;28;20875;-71
2024/02/19 00:10:53;;;;;;;4.97;1.57;;;9.60;99.90;;;;;;5011709;28;20487;-71
2024/02/19 00:13:20;;;;;;;1.40;1.27;;;9.50;99.90;;;;;;5013351;28;20469;-71
2024/02/19 00:15:47;;;;;;;6.87;1.80;;;9.60;99.90;;;;;;5016427;28;20464;-71
2024/02/19 00:18:14;;;;;;;8.43;2.43;;;9.50;99.90;;;;;;5012995;28;20473;-70
2024/02/19 00:20:41;;;;;;;1.67;1.57;;;9.50;99.90;;;;;;5014195;28;20456;-70
2024/02/19 00:23:07;;;;;;;1.93;1.13;;;9.50;99.90;;;;;;5015886;28;20468;-70
2024/02/19 00:25:36;;;;;;;3.67;1.87;;;9.50;99.90;;;;;;5008327;28;20484;-70
2024/02/19 00:28:02;;;;;;;4.17;2.03;;;9.50;99.90;;;;;;5007472;28;20558;-71
2024/02/19 00:30:29;;;;;;;1.90;1.03;;;9.50;99.90;;;;;;5012515;28;20480;-71
2024/02/19 00:32:56;;;;;;;3.90;1.87;;;9.40;99.90;;;;;;5011596;28;20475;-71
2024/02/19 00:35:23;;;;;;;10.27;1.87;;;9.40;99.90;;;;;;5014519;28;21039;-70
2024/02/19 00:37:50;;;;;;;3.27;1.43;;;9.40;99.90;;;;;;5016588;28;20489;-71
2024/02/19 00:40:18;;;;;;;1.97;0.90;;;9.50;99.90;;;;;;5017306;28;20461;-71
2024/02/19 00:42:46;;;;;;;7.20;1.43;;;9.40;99.90;;;;;;5012881;28;20992;-71
2024/02/19 00:45:13;;;;;;;1.80;0.90;;;9.40;99.90;;;;;;5012297;28;20432;-70
2024/02/19 00:47:40;;;;;;;1.47;1.07;;;9.40;99.90;;;;;;5011289;28;20462;-71
2024/02/19 00:50:08;;;;;;;1.73;1.30;;;9.30;99.90;;;;;;5018398;28;20481;-71
2024/02/19 00:52:34;;;;;;;2.40;1.10;;;9.30;99.90;;;;;;5014476;28;20900;-71
2024/02/19 00:55:01;;;;;;;3.73;1.97;;;9.20;99.90;;;;;;5013093;28;20443;-71
2024/02/19 00:57:28;;;;;;;2.50;1.03;;;9.20;99.90;;;;;;5015195;28;20488;-70
2024/02/19 00:59:56;;;;;;;2.60;1.87;;;9.10;99.90;;;;;;5015854;28;20463;-70
2024/02/19 01:02:23;;;;;;;9.40;1.40;;;9.10;99.90;;;;;;5011988;28;20446;-70
2024/02/19 01:04:53;;;;;;;4.27;0.80;;;9.10;99.90;;;;;;5008519;28;20481;-71
2024/02/19 01:07:20;;;;;;;1.97;0.90;;;9.00;99.90;;;;;;5012037;28;20926;-70
2024/02/19 01:09:47;;;;;;;1.83;1.50;;;9.10;99.90;;;;;;5020792;28;20903;-70
2024/02/19 01:12:14;;;;;;;3.57;1.50;;;9.00;99.90;;;;;;5011708;28;20460;-71
2024/02/19 01:14:41;;;;;;;2.03;1.10;;;9.10;99.90;;;;;;5014872;28;20472;-69
2024/02/19 01:17:09;;;;;;;9.03;1.37;;;9.20;99.90;;;;;;5007992;28;20481;-70
2024/02/19 01:19:36;;;;;;;1.10;0.90;;;9.10;99.90;;;;;;5002416;28;20468;-70
2024/02/19 01:22:03;;;;;;;2.40;1.43;;;9.00;99.90;;;;;;5012078;28;20829;-70
2024/02/19 01:24:31;;;;;;;1.47;1.10;;;8.90;99.90;;;;;;5017352;28;20733;-71
2024/02/19 01:26:57;;;;;;;2.87;1.10;;;9.10;99.90;;;;;;5010201;28;20528;-70
2024/02/19 01:29:25;;;;;;;4.47;1.10;;;9.00;99.90;;;;;;5015240;28;20494;-70
2024/02/19 01:31:52;;;;;;;1.10;0.97;;;9.00;99.90;;;;;;5015154;28;20960;-70
2024/02/19 01:34:20;;;;;;;3.43;1.57;;;9.10;99.90;;;;;;5019421;28;20460;-71
2024/02/19 01:36:47;;;;;;;6.17;1.77;;;9.00;99.90;;;;;;5012196;28;20952;-71
2024/02/19 01:39:15;;;;;;;1.70;1.23;;;9.00;99.90;;;;;;5018459;28;20442;-71
2024/02/19 01:41:41;;;;;;;4.47;1.83;;;8.90;99.90;;;;;;5020435;28;20567;-70
2024/02/19 01:44:08;;;;;;;3.23;2.93;;;8.90;99.90;;;;;;5020144;28;20567;-70
2024/02/19 01:46:39;;;;;;;1.57;1.47;;;8.90;99.90;;;;;;5015614;28;20457;-70
2024/02/19 01:49:06;;;;;;;9.17;1.17;;;8.80;99.90;;;;;;5014225;28;20459;-72
2024/02/19 01:51:37;;;;;;;3.57;1.23;;;8.90;99.90;;;;;;5012966;28;21228;-71
2024/02/19 01:54:04;;;;;;;3.73;2.07;;;8.90;99.90;;;;;;5012307;28;20530;-70
2024/02/19 01:56:31;;;;;;;1.67;1.03;;;8.90;99.90;;;;;;5013853;28;20460;-70
2024/02/19 01:59:01;;;;;;;3.40;1.97;;;8.90;99.90;;;;;;5016946;28;20503;-71
2024/02/19 02:01:29;;;;;;;2.00;1.10;;;8.80;99.90;;;;;;5007474;28;21056;-70
2024/02/19 02:03:57;;;;;;;4.90;1.60;;;8.90;99.90;;;;;;5016521;28;20476;-71
2024/02/19 02:06:24;;;;;;;3.47;1.17;;;8.90;99.90;;;;;;5022272;28;20467;-72
2024/02/19 02:08:52;;;;;;;4.00;1.07;;;8.90;99.90;;;;;;5016575;28;20984;-71
2024/02/19 02:11:19;;;;;;;4.93;1.30;;;8.90;99.90;;;;;;5018668;28;20495;-71
2024/02/19 02:13:46;;;;;;;19.07;1.80;;;8.90;99.90;;;;;;5015808;28;20451;-71
2024/02/19 02:16:13;;;;;;;4.73;1.40;;;8.90;99.90;;;;;;5018130;28;20464;-70
2024/02/19 02:18:40;;;;;;;3.20;1.73;;;8.90;99.90;;;;;;5011527;28;21294;-71
2024/02/19 02:21:07;;;;;;;5.00;1.97;;;8.90;99.90;;;;;;5011020;28;20461;-70
2024/02/19 02:23:34;;;;;;;4.17;1.57;;;8.80;99.90;;;;;;5015669;28;20930;-71
2024/02/19 02:26:02;;;;;;;8.20;2.23;;;8.80;99.90;;;;;;5019278;28;20443;-70
2024/02/19 02:28:30;;;;;;;5.70;2.07;;;8.80;99.90;;;;;;5008208;28;20473;-71
2024/02/19 02:30:57;;;;;;;1.27;0.90;;;8.80;99.90;;;;;;5012524;28;20492;-71
2024/02/19 02:33:24;;;;;;;1.93;1.40;;;8.80;99.90;;;;;;5012842;28;20532;-70
2024/02/19 02:35:51;;;;;;;2.37;1.10;;;8.80;99.90;;;;;;5018758;28;20553;-71
2024/02/19 02:38:18;;;;;;;5.63;1.40;;;8.70;99.90;;;;;;5015813;28;20574;-70
2024/02/19 02:40:44;;;;;;;1.30;1.20;;;8.70;99.90;;;;;;5016559;28;20523;-71
2024/02/19 02:43:11;;;;;;;1.57;0.93;;;8.70;99.90;;;;;;5016452;28;21155;-71
2024/02/19 02:45:39;;;;;;;3.67;1.60;;;8.70;99.90;;;;;;5011706;28;20460;-71
2024/02/19 02:48:07;;;;;;;3.90;1.17;;;8.70;99.90;;;;;;5010491;28;21029;-71
2024/02/19 02:50:34;;;;;;;19.63;2.50;;;8.80;99.90;;;;;;5015144;28;20542;-71
2024/02/19 02:53:01;;;;;;;1.20;1.10;;;8.80;99.90;;;;;;5009588;28;20486;-71
2024/02/19 02:55:28;;;;;;;5.30;1.23;;;8.90;99.90;;;;;;5016778;28;20475;-71
2024/02/19 02:57:54;;;;;;;3.13;1.17;;;8.80;99.90;;;;;;5021471;28;20830;-71
2024/02/19 03:00:22;;;;;;;0.90;0.70;;;8.90;99.90;;;;;;5018374;28;20467;-71
2024/02/19 03:02:51;;;;;;;3.53;1.00;;;8.80;99.90;;;;;;5011921;28;20468;-72
2024/02/19 03:05:17;;;;;;;1.10;0.80;;;8.80;99.90;;;;;;5016277;28;20601;-71
2024/02/19 03:07:44;;;;;;;0.97;0.87;;;8.70;99.90;;;;;;5013502;28;20474;-71
2024/02/19 03:10:12;;;;;;;3.37;1.10;;;8.60;99.90;;;;;;5017190;28;20488;-71
2024/02/19 03:12:39;;;;;;;1.63;0.87;;;8.70;99.90;;;;;;5011529;28;20465;-71
2024/02/19 03:15:07;;;;;;;5.23;1.00;;;8.60;99.90;;;;;;5011586;28;20581;-71
2024/02/19 03:17:33;;;;;;;4.90;1.30;;;8.60;99.90;;;;;;5009070;28;20583;-70
2024/02/19 03:20:04;;;;;;;2.33;1.10;;;8.70;99.90;;;;;;5013215;28;20494;-71
2024/02/19 03:22:31;;;;;;;1.80;1.03;;;8.80;99.90;;;;;;5008178;28;20467;-71
2024/02/19 03:24:58;;;;;;;3.83;1.23;;;8.80;99.90;;;;;;5016840;28;20491;-71
2024/02/19 03:27:25;;;;;;;1.03;0.90;;;8.80;99.90;;;;;;5016588;28;20855;-71
2024/02/19 03:29:51;;;;;;;2.40;0.87;;;8.80;99.90;;;;;;5015471;28;20504;-71
2024/02/19 03:32:18;;;;;;;6.20;0.93;;;8.80;99.90;;;;;;5016017;28;20464;-71
2024/02/19 03:34:45;;;;;;;6.63;1.10;;;8.80;99.90;;;;;;5009500;28;20469;-71
2024/02/19 03:37:15;;;;;;;1.60;1.30;;;8.80;99.90;;;;;;5005774;28;20492;-71
2024/02/19 03:39:41;;;;;;;4.50;1.07;;;8.80;99.90;;;;;;5009830;28;20466;-71
2024/02/19 03:42:08;;;;;;;1.10;0.70;;;8.70;99.90;;;;;;5013427;28;20453;-71
2024/02/19 03:44:35;;;;;;;3.07;1.00;;;8.80;99.90;;;;;;5013448;28;20464;-70
2024/02/19 03:47:02;;;;;;;1.93;1.23;;;8.80;99.90;;;;;;5008868;28;20504;-71
2024/02/19 03:49:28;;;;;;;1.07;0.87;;;8.80;99.90;;;;;;5017608;28;20467;-71
2024/02/19 03:51:55;;;;;;;6.10;1.70;;;8.90;99.90;;;;;;5010770;28;20483;-70
2024/02/19 03:54:24;;;;;;;1.10;0.70;;;8.90;99.90;;;;;;5012387;28;20463;-71
2024/02/19 03:56:52;;;;;;;7.50;1.40;;;8.90;99.90;;;;;;5011956;28;20563;-71
2024/02/19 03:59:18;;;;;;;3.53;1.20;;;9.00;99.90;;;;;;5008451;28;21345;-71
2024/02/19 04:01:45;;;;;;;2.00;1.20;;;9.00;99.90;;;;;;5011013;28;20774;-71
2024/02/19 04:04:14;;;;;;;1.20;1.03;;;9.00;99.90;;;;;;5016411;28;20479;-70
2024/02/19 04:06:41;;;;;;;1.97;1.23;;;9.00;99.90;;;;;;5017257;28;20548;-70
2024/02/19 04:09:09;;;;;;;3.63;0.90;;;9.00;99.90;;;;;;5012452;28;20464;-70
2024/02/19 04:11:37;;;;;;;4.90;1.30;;;9.00;99.90;;;;;;5002193;28;20649;-70
2024/02/19 04:14:04;;;;;;;4.10;1.20;;;9.00;99.90;;;;;;5005298;28;20583;-72
2024/02/19 04:16:31;;;;;;;2.37;2.17;;;9.00;99.90;;;;;;5001003;28;21007;-70
2024/02/19 04:18:57;;;;;;;4.20;1.00;;;9.00;99.90;;;;;;5006524;28;21447;-71
2024/02/19 04:21:24;;;;;;;10.83;1.70;;;9.00;99.90;;;;;;5011458;28;20467;-71
2024/02/19 04:23:51;;;;;;;2.73;1.33;;;9.10;99.90;;;;;;5006631;28;20575;-70
2024/02/19 04:26:17;;;;;;;2.83;1.33;;;9.10;99.90;;;;;;5000878;28;20466;-70
2024/02/19 04:28:45;;;;;;;2.33;1.87;;;9.00;99.90;;;;;;5014012;28;20502;-70
2024/02/19 04:31:12;;;;;;;8.80;1.40;;;8.90;99.90;;;;;;5002650;28;20493;-71
2024/02/19 04:33:39;;;;;;;2.43;1.30;;;9.00;99.90;;;;;;5008858;28;20457;-71
2024/02/19 04:36:08;;;;;;;2.00;1.23;;;9.00;99.90;;;;;;5004155;28;20464;-72
2024/02/19 04:38:34;;;;;;;5.83;1.50;;;9.00;99.90;;;;;;5012079;28;20487;-70
2024/02/19 04:41:01;;;;;;;3.63;1.23;;;9.00;99.90;;;;;;5012261;28;20456;-70
2024/02/19 04:43:28;;;;;;;2.20;1.43;;;9.00;99.90;;;;;;4998569;28;20467;-70
2024/02/19 04:45:56;;;;;;;4.90;1.07;;;9.10;99.90;;;;;;4999524;28;20464;-70
2024/02/19 04:48:22;;;;;;;4.17;1.13;;;9.00;99.90;;;;;;5007819;28;20518;-70
2024/02/19 04:50:49;;;;;;;5.13;1.20;;;9.00;99.90;;;;;;5001851;28;21038;-69
2024/02/19 04:53:18;;;;;;;14.97;1.77;;;9.00;99.90;;;;;;5008324;28;20544;-70
2024/02/19 04:55:45;;;;;;;3.83;1.40;;;9.00;99.90;;;;;;5011737;28;21018;-70
2024/02/19 04:58:12;;;;;;;4.13;1.13;;;9.00;99.90;;;;;;5018028;28;20776;-70
2024/02/19 05:00:40;;;;;;;1.63;1.13;;;9.00;99.90;;;;;;5017092;28;20460;-70
2024/02/19 05:03:08;;;;;;;1.73;1.03;;;9.00;99.90;;;;;;5016359;28;20634;-70
2024/02/19 05:05:35;;;;;;;4.90;1.73;;;9.10;99.90;;;;;;5021932;28;20442;-71
2024/02/19 05:08:03;;;;;;;3.33;1.40;;;9.10;99.90;;;;;;5019058;28;21165;-70
2024/02/19 05:10:29;;;;;;;6.87;1.53;;;9.20;99.90;;;;;;5022847;28;20462;-70
2024/02/19 05:12:56;;;;;;;15.27;2.20;;;9.30;99.90;;;;;;5014962;28;20978;-70
2024/02/19 05:15:23;;;;;;;8.90;1.73;;;9.30;99.90;;;;;;5010958;28;20548;-70
2024/02/19 05:17:49;;;;;;;2.70;1.67;;;9.30;99.90;;;;;;5020711;28;20495;-71
2024/02/19 05:20:18;;;;;;;7.47;1.53;;;9.20;99.90;;;;;;5022495;28;20455;-70
2024/02/19 05:22:47;;;;;;;22.93;2.43;;;9.30;99.90;;;;;;5016205;28;20460;-71
2024/02/19 05:25:13;;;;;;;7.37;1.87;;;9.30;99.90;;;;;;5018138;28;20480;-70
2024/02/19 05:27:40;;;;;;;5.23;1.60;;;9.20;99.90;;;;;;5010841;28;20480;-71
2024/02/19 05:30:08;;;;;;;18.37;2.13;;;9.20;99.90;;;;;;5021723;28;20946;-71
2024/02/19 05:32:36;;;;;;;7.03;1.93;;;9.10;99.90;;;;;;5003870;28;21007;-71
2024/02/19 05:35:03;;;;;;;8.63;2.07;;;9.30;99.90;;;;;;5010968;28;20459;-71
2024/02/19 05:37:32;;;;;;;2.53;2.10;;;9.20;99.90;;;;;;5017190;28;20458;-71
2024/02/19 05:39:59;;;;;;;3.43;1.73;;;9.20;99.90;;;;;;5011704;28;20464;-70
2024/02/19 05:42:25;;;;;;;1.60;1.30;;;9.20;99.90;;;;;;5007748;28;20848;-71
2024/02/19 05:44:52;;;;;;;4.13;2.00;;;9.20;99.90;;;;;;5004198;28;20490;-71
2024/02/19 05:47:20;;;;;;;1.93;1.50;;;9.30;99.90;;;;;;5013170;28;20462;-71
2024/02/19 05:49:48;;;;;;;2.20;1.40;;;9.20;99.90;;;;;;5020416;28;20606;-71
2024/02/19 05:52:14;;;;;;;5.33;2.73;;;9.20;99.90;;;;;;5018851;28;20563;-71
2024/02/19 05:54:44;;;;;;;8.50;3.43;;;9.20;99.90;;;;;;5017988;28;20461;-70
2024/02/19 05:57:10;;;;;;;4.67;2.10;;;9.20;99.90;;;;;;5020822;28;20488;-70
2024/02/19 05:59:37;;;;;;;9.70;2.50;;;9.30;99.90;;;;;;5020399;28;20471;-70
2024/02/19 06:02:04;;;;;;;6.87;2.63;;;9.30;99.90;;;;;;5014705;28;20476;-71
2024/02/19 06:04:31;;;;;;;8.93;2.97;;;9.20;99.90;;;;;;5015113;28;20447;-71
2024/02/19 06:06:59;;;;;;;6.90;2.40;;;9.30;99.90;;;;;;5018162;28;20480;-71
2024/02/19 06:09:25;;;;;;;4.27;2.40;;;9.20;99.90;;;;;;5013226;28;20934;-70
2024/02/19 06:11:54;;;;;;;3.93;1.90;;;9.20;99.90;;;;;;5019291;28;20484;-71
2024/02/19 06:14:21;;;;;;;2.33;2.10;;;9.30;99.90;;;;;;5020577;28;20460;-71
2024/02/19 06:16:47;;;;;;;4.70;1.80;;;9.20;99.90;;;;;;5011341;28;20480;-72
2024/02/19 06:19:15;;;;;;;7.67;2.50;;;9.30;99.90;;;;;;5020632;28;20965;-70
2024/02/19 06:21:42;;;;;;;13.67;2.40;;;9.30;99.90;;;;;;5019863;28;20510;-71
2024/02/19 06:24:08;;;;;;;7.00;2.93;;;9.30;99.90;;;;;;5019688;28;20480;-71
2024/02/19 06:26:36;;;;;;;5.80;2.03;;;9.20;99.90;;;;;;5024050;28;20471;-71
2024/02/19 06:29:04;;;;;;;5.73;2.90;;;9.30;99.90;;;;;;5020086;28;20532;-71
2024/02/19 06:31:31;;;;;;;5.67;2.10;;;9.20;99.90;;;;;;5015942;28;20796;-70
2024/02/19 06:33:58;;;;;;;6.90;3.13;;;9.30;99.90;;;;;;5021074;28;20460;-71
2024/02/19 06:36:25;;;;;;;6.13;2.10;;;9.20;99.90;;;;;;5021443;28;21758;-71
2024/02/19 06:38:51;;;;;;;4.50;2.20;;;9.20;99.90;;;;;;5017274;28;20974;-71
2024/02/19 06:41:18;;;;;;;7.80;2.00;;;9.20;99.90;;;;;;5016365;28;20472;-70
2024/02/19 06:43:45;;;;;;;7.23;2.53;;;9.20;99.90;;;;;;5019428;28;20472;-71
2024/02/19 06:46:13;;;;;;;6.70;2.20;;;9.20;99.90;;;;;;5018758;28;20464;-71
2024/02/19 06:48:41;;;;;;;12.67;3.20;;;9.20;99.90;;;;;;5021021;28;20480;-70
2024/02/19 06:51:08;;;;;;;7.90;2.50;;;9.30;99.90;;;;;;5018704;28;20475;-71
2024/02/19 06:53:34;;;;;;;6.00;2.97;;;9.30;99.90;;;;;;5018612;28;20472;-70
2024/02/19 06:56:01;;;;;;;14.13;4.50;;;9.30;99.90;;;;;;5018947;28;22308;-70
2024/02/19 06:58:28;;;;;;;3.00;2.27;;;9.30;99.90;;;;;;5021586;28;20943;-70
2024/02/19 07:00:54;;;;;;;7.80;4.23;;;9.30;99.90;;;;;;5017945;28;20460;-71
2024/02/19 07:03:22;;;;;;;14.47;4.10;;;9.30;99.90;;;;;;5020489;28;20483;-71
2024/02/19 07:05:49;;;;;;;5.20;3.80;;;9.40;99.90;;;;;;5019593;28;20460;-70
2024/02/19 07:08:16;;;;;;;24.67;4.37;;;9.30;99.90;;;;;;5017674;28;20496;-71
2024/02/19 07:10:43;;;;;;;8.00;2.90;;;9.30;99.90;;;;;;5013377;28;20476;-71
2024/02/19 07:15:37;;;;;;;12.83;4.37;;;9.40;99.90;;;;;;5010182;28;21381;-72
2024/02/19 07:18:04;;;;;;;8.47;4.50;;;9.40;99.90;;;;;;5015678;28;20480;-71
2024/02/19 07:20:32;;;;;;;6.53;3.50;;;9.40;99.90;;;;;;5012516;28;20496;-71
2024/02/19 07:23:00;;;;;;;6.30;3.63;;;9.30;99.90;;;;;;5016824;28;20465;-71
2024/02/19 07:25:26;;;;;;;10.53;4.07;;;9.40;99.90;;;;;;5013090;28;20999;-72
2024/02/19 07:27:53;;;;;;;10.63;3.60;;;9.40;99.90;;;;;;5013429;28;20484;-72
2024/02/19 07:30:20;;;;;;;12.23;5.53;;;9.40;99.90;;;;;;5009331;28;21129;-72
2024/02/19 07:32:46;;;;;;;7.20;4.63;;;9.40;99.90;;;;;;5015710;28;20522;-72
2024/02/19 07:35:13;;;;;;;12.47;4.00;;;9.50;99.90;;;;;;5016903;28;20506;-72
2024/02/19 07:37:41;;;;;;;13.83;6.53;;;9.50;99.90;;;;;;5011172;28;20824;-72
2024/02/19 07:40:09;;;;;;;6.90;4.17;;;9.60;99.90;;;;;;5014418;28;20468;-71
2024/02/19 07:42:36;;;;;;;12.33;4.90;;;9.60;99.90;;;;;;5018924;28;20464;-72
2024/02/19 07:45:03;;;;;;;12.47;6.20;;;9.60;99.90;;;;;;5012514;28;20464;-72
2024/02/19 07:47:30;;;;;;;8.60;5.47;;;9.70;99.90;;;;;;5017335;28;20502;-72
2024/02/19 07:49:57;;;;;;;18.30;4.70;;;9.80;99.90;;;;;;5016924;28;20460;-71
2024/02/19 07:52:23;;;;;;;3.20;2.60;;;9.80;99.90;;;;;;5017097;28;20477;-71
2024/02/19 07:54:51;;;;;;;11.13;4.33;;;9.90;99.90;;;;;;5021122;28;21142;-71
2024/02/19 07:57:18;;;;;;;9.90;3.67;;;9.80;99.90;;;;;;5011110;28;20484;-71
2024/02/19 07:59:45;;;;;;;9.33;4.60;;;9.70;99.90;;;;;;5016511;28;20804;-71
2024/02/19 08:02:11;;;;;;;8.50;4.37;;;9.70;99.90;;;;;;5016826;28;20432;-71
2024/02/19 08:04:38;;;;;;;10.37;4.33;;;9.60;99.90;;;;;;5018333;28;20940;-72
2024/02/19 08:07:05;;;;;;;6.40;4.77;;;9.70;99.90;;;;;;5018422;28;20507;-72
2024/02/19 08:09:32;;;;;;;10.63;4.60;;;9.70;99.90;;;;;;5015789;28;20468;-72
2024/02/19 08:12:00;;;;;;;10.53;5.53;;;9.60;99.90;;;;;;5012587;28;20482;-72
2024/02/19 08:14:27;;;;;;;11.80;6.87;;;9.60;99.90;;;;;;5017631;28;20479;-72
2024/02/19 08:16:53;;;;;;;12.17;7.17;;;9.60;99.90;;;;;;5013693;28;20495;-72
2024/02/19 08:19:20;;;;;;;11.67;4.23;;;9.80;99.90;;;;;;5002983;28;21373;-72
2024/02/19 08:21:48;;;;;;;4.63;3.47;;;9.80;99.90;;;;;;5015021;28;20465;-72
2024/02/19 08:24:15;;;;;;;14.70;7.40;;;9.70;99.90;;;;;;5013133;28;20464;-72
2024/02/19 08:26:42;;;;;;;3.33;2.70;;;9.70;99.90;;;;;;5010482;28;20886;-72
2024/02/19 08:29:10;;;;;;;10.83;6.43;;;9.70;99.90;;;;;;5013919;28;20468;-72
2024/02/19 08:31:37;;;;;;;9.90;6.07;;;9.60;99.90;;;;;;5015002;28;20464;-72
2024/02/19 08:34:04;;;;;;;23.03;7.60;;;9.80;99.90;;;;;;5013187;28;20464;-72
2024/02/19 08:36:32;;;;;;;10.33;5.83;;;9.80;99.90;;;;;;5016816;28;21099;-72
2024/02/19 08:38:59;;;;;;;13.50;6.23;;;9.80;99.90;;;;;;5014709;28;20476;-72
2024/02/19 08:41:26;;;;;;;8.27;4.90;;;9.90;99.90;;;;;;5012938;28;20457;-72
2024/02/19 08:43:53;;;;;;;10.87;6.43;;;10.00;99.90;;;;;;5014614;28;20460;-72
2024/02/19 08:46:21;;;;;;;10.17;4.23;;;10.00;99.90;;;;;;5021468;28;20460;-72
2024/02/19 08:48:48;;;;;;;7.07;5.27;;;10.00;99.90;;;;;;5008462;28;21014;-72
2024/02/19 08:51:15;;;;;;;5.93;5.07;;;10.00;99.90;;;;;;5018258;28;20457;-71
2024/02/19 08:53:42;;;;;;;14.93;5.30;;;10.00;99.90;;;;;;5014020;28;20500;-72
2024/02/19 08:56:09;;;;;;;18.43;4.83;;;10.20;99.90;;;;;;5018642;28;20467;-71
2024/02/19 08:58:35;;;;;;;16.93;4.23;;;10.10;99.90;;;;;;5023730;28;20483;-71
2024/02/19 09:01:02;;;;;;;12.40;4.87;;;10.10;99.90;;;;;;5019444;28;20559;-72
2024/02/19 09:03:30;;;;;;;4.33;2.63;;;10.10;99.90;;;;;;5013261;28;20544;-72
2024/02/19 09:05:57;;;;;;;7.23;2.77;;;10.20;99.90;;;;;;5015605;28;20460;-72
2024/02/19 09:08:24;;;;;;;9.20;5.23;;;10.20;99.90;;;;;;5015920;28;20490;-72
2024/02/19 09:10:50;;;;;;;4.37;2.53;;;10.30;99.90;;;;;;5015953;28;20471;-72
2024/02/19 09:13:17;;;;;;;8.80;4.30;;;10.50;99.90;;;;;;5014464;28;20488;-71
2024/02/19 09:15:45;;;;;;;6.83;4.37;;;10.60;99.90;;;;;;5013040;28;20472;-72
2024/02/19 09:18:12;;;;;;;4.50;3.17;;;10.70;99.90;;;;;;5013512;28;20516;-71
2024/02/19 09:20:40;;;;;;;3.67;1.87;;;10.80;99.90;;;;;;5016399;28;20464;-72
2024/02/19 09:23:07;;;;;;;2.27;2.07;;;11.00;99.90;;;;;;5016613;28;20464;-71
2024/02/19 09:25:33;;;;;;;16.90;3.13;;;11.00;99.90;;;;;;5013814;28;20456;-71
2024/02/19 09:28:00;;;;;;;13.07;2.80;;;10.90;99.90;;;;;;5017081;28;20488;-71
2024/02/19 09:30:27;;;;;;;8.90;2.70;;;11.10;99.90;;;;;;5007606;28;20463;-73
2024/02/19 09:32:54;;;;;;;4.40;3.10;;;11.10;99.90;;;;;;5015819;28;20599;-72
2024/02/19 09:35:20;;;;;;;6.93;2.80;;;11.30;99.90;;;;;;5014406;28;22503;-72
2024/02/19 09:37:50;;;;;;;7.00;2.37;;;11.50;99.90;;;;;;5012598;28;20487;-71
2024/02/19 09:40:21;;;;;;;6.50;2.90;;;11.70;99.90;;;;;;5011316;28;20460;-70
2024/02/19 09:42:48;;;;;;;8.37;4.00;;;11.60;99.90;;;;;;5016548;28;20459;-70
2024/02/19 09:45:15;;;;;;;7.30;3.47;;;11.50;99.90;;;;;;5011585;28;20464;-71
2024/02/19 09:47:44;;;;;;;8.27;2.70;;;11.70;99.90;;;;;;5013337;28;20913;-72
2024/02/19 09:50:13;;;;;;;5.10;2.70;;;11.70;99.90;;;;;;5015316;28;20549;-71
2024/02/19 09:52:43;;;;;;;7.33;4.87;;;11.70;99.90;;;;;;5015412;28;20620;-72
2024/02/19 09:55:11;;;;;;;6.53;2.87;;;11.60;99.90;;;;;;5014703;28;20783;-71
2024/02/19 09:57:38;;;;;;;3.90;2.10;;;11.70;99.90;;;;;;5015806;28;20851;-72
2024/02/19 10:00:06;;;;;;;14.10;5.50;;;11.80;99.90;;;;;;5018548;28;21032;-72
2024/02/19 10:02:32;;;;;;;2.73;2.33;;;11.80;99.90;;;;;;5017475;28;20473;-72
2024/02/19 10:05:00;;;;;;;4.70;3.17;;;11.70;99.90;;;;;;5010515;28;21062;-71
2024/02/19 10:07:25;;;;;;;5.23;4.10;;;11.70;99.90;;;;;;5013633;28;20507;-72
2024/02/19 10:09:52;;;;;;;10.07;3.80;;;11.70;99.90;;;;;;5016707;28;20570;-72
2024/02/19 10:12:20;;;;;;;14.57;2.97;;;11.80;99.90;;;;;;5016539;28;20230;-72
2024/02/19 10:14:47;;;;;;;5.80;3.90;;;11.80;99.90;;;;;;5010950;28;20480;-72
2024/02/19 10:17:20;;;;;;;6.93;4.07;;;11.80;99.90;;;;;;5013664;28;20481;-72
2024/02/19 10:19:47;;;;;;;8.83;4.07;;;12.00;99.90;;;;;;5015807;28;20597;-72
2024/02/19 10:22:16;;;;;;;7.00;3.67;;;12.00;99.90;;;;;;5008471;28;20468;-72
2024/02/19 10:24:43;;;;;;;8.33;4.27;;;12.00;99.90;;;;;;5017965;28;20468;-72
2024/02/19 10:27:10;;;;;;;6.43;3.70;;;12.10;99.90;;;;;;5014020;28;20485;-72
2024/02/19 10:29:38;;;;;;;16.13;3.33;;;12.00;99.90;;;;;;5015391;28;20456;-72
2024/02/19 10:32:05;;;;;;;4.70;3.00;;;12.10;99.90;;;;;;5010600;28;20484;-72
2024/02/19 10:34:34;;;;;;;5.53;2.70;;;12.20;99.90;;;;;;5013305;28;21190;-72
2024/02/19 10:37:03;;;;;;;23.10;7.20;;;12.10;99.90;;;;;;5014643;28;20581;-72
2024/02/19 10:39:31;;;;;;;5.93;3.10;;;12.00;99.90;;;;;;5013038;28;20526;-72
2024/02/19 10:41:58;;;;;;;3.43;3.13;;;12.10;99.90;;;;;;5009482;28;20483;-72
2024/02/19 10:44:26;;;;;;;8.67;5.20;;;12.00;99.90;;;;;;5014330;28;20464;-72
2024/02/19 10:46:55;;;;;;;7.37;3.80;;;12.00;99.90;;;;;;5016553;28;20491;-71
2024/02/19 10:49:22;;;;;;;7.70;3.00;;;12.00;99.90;;;;;;5013122;28;20469;-71
2024/02/19 10:51:50;;;;;;;6.90;4.67;;;12.10;99.90;;;;;;5011647;28;21071;-71
2024/02/19 10:54:18;;;;;;;12.10;4.90;;;12.10;99.90;;;;;;5014223;28;20488;-71
2024/02/19 10:56:45;;;;;;;7.50;4.60;;;12.20;99.90;;;;;;5019395;28;20480;-72
2024/02/19 10:59:13;;;;;;;8.00;6.40;;;12.30;99.90;;;;;;5019033;28;20495;-72
2024/02/19 11:01:43;;;;;;;14.60;4.07;;;12.30;99.90;;;;;;5016931;28;20487;-72
2024/02/19 11:04:33;;;;;;;6.60;3.83;;;12.30;99.90;;;;;;5012837;28;20459;-71
2024/02/19 11:07:02;;;;;;;10.33;6.10;;;12.40;99.90;;;;;;5016685;28;20507;-72
2024/02/19 11:09:32;;;;;;;12.67;6.20;;;12.40;99.90;;;;;;5015654;28;20537;-72
2024/02/19 11:12:01;;;;;;;9.50;5.70;;;12.30;99.90;;;;;;5015009;28;20604;-72
2024/02/19 11:14:30;;;;;;;10.83;6.87;;;12.20;99.90;;;;;;5018965;28;20989;-72
2024/02/19 11:16:57;;;;;;;11.33;5.43;;;12.30;99.90;;;;;;5017383;28;20480;-72
2024/02/19 11:19:24;;;;;;;14.37;5.80;;;12.40;99.90;;;;;;5015561;28;20535;-72
2024/02/19 11:22:03;;;;;;;10.63;5.10;;;12.50;99.90;;;;;;5018079;28;20469;-72
2024/02/19 11:24:31;;;;;;;9.57;6.70;;;12.60;99.90;;;;;;5017157;28;20464;-72
2024/02/19 11:26:58;;;;;;;11.03;7.67;;;12.40;99.90;;;;;;5016581;28;20571;-71
2024/02/19 11:29:25;;;;;;;14.63;5.87;;;12.40;99.90;;;;;;5011703;28;20464;-71
2024/02/19 11:31:59;;;;;;;11.60;7.20;;;12.50;99.90;;;;;;5018564;28;20456;-73
2024/02/19 11:34:26;;;;;;;16.83;8.57;;;12.30;99.90;;;;;;5012191;28;20547;-72
2024/02/19 11:37:01;;;;;;;11.20;6.30;;;12.20;99.90;;;;;;5011253;28;20484;-72
2024/02/19 11:39:28;;;;;;;12.90;6.63;;;12.20;99.90;;;;;;5011906;28;20483;-73
2024/02/19 11:41:54;;;;;;;21.53;9.47;;;12.30;99.90;;;;;;5012360;28;20828;-70
2024/02/19 11:44:22;;;;;;;16.73;8.00;;;12.30;99.90;;;;;;5019354;28;20460;-71
2024/02/19 11:46:49;;;;;;;10.07;6.80;;;12.50;99.90;;;;;;5016640;28;20476;-71
2024/02/19 11:49:17;;;;;;;22.87;8.30;;;12.70;99.90;;;;;;5019220;28;20944;-71
2024/02/19 11:51:47;;;;;;;5.77;4.20;;;12.60;99.90;;;;;;5015567;28;20791;-71
2024/02/19 11:54:16;;;;;;;13.47;8.37;;;12.50;99.90;;;;;;5018125;28;20499;-71
2024/02/19 11:56:44;;;;;;;9.90;6.70;;;12.40;99.90;;;;;;5013256;28;20460;-72
2024/02/19 11:59:11;;;;;;;17.17;9.13;;;12.30;99.90;;;;;;5013662;28;20963;-71
2024/02/19 12:01:38;;;;;;;13.47;7.90;;;12.50;99.90;;;;;;5017458;28;20435;-71
2024/02/19 12:04:05;;;;;;;9.17;6.93;;;12.40;99.90;;;;;;5015431;28;20555;-71
2024/02/19 12:06:35;;;;;;;18.80;8.57;;;12.40;99.90;;;;;;5009033;28;20460;-72
2024/02/19 12:09:02;;;;;;;10.27;5.87;;;12.50;99.90;;;;;;5012162;28;21718;-72
2024/02/19 12:11:31;;;;;;;16.10;7.93;;;12.80;99.90;;;;;;5014638;28;20471;-71
2024/02/19 12:13:58;;;;;;;11.00;7.27;;;12.80;99.90;;;;;;5012981;28;20484;-72
2024/02/19 12:16:28;;;;;;;16.97;7.50;;;12.90;99.90;;;;;;5018664;28;20565;-72
2024/02/19 12:18:55;;;;;;;15.97;7.43;;;13.00;99.90;;;;;;5017973;28;20461;-72
2024/02/19 12:21:22;;;;;;;14.13;6.70;;;12.90;99.90;;;;;;5017528;28;20866;-72
2024/02/19 12:23:52;;;;;;;17.03;7.50;;;13.00;99.90;;;;;;5016529;28;21229;-72
2024/02/19 12:26:19;;;;;;;11.07;6.50;;;13.00;99.90;;;;;;5016286;28;20476;-70
2024/02/19 12:28:47;;;;;;;10.37;6.60;;;13.10;99.90;;;;;;5012146;28;20506;-72
2024/02/19 12:31:14;;;;;;;12.50;6.03;;;13.40;99.90;;;;;;5011681;28;20804;-70
2024/02/19 12:33:41;;;;;;;12.53;6.93;;;13.60;99.90;;;;;;5012098;28;20528;-72
2024/02/19 12:36:10;;;;;;;12.60;6.07;;;13.70;99.90;;;;;;5015639;28;20471;-72
2024/02/19 12:38:41;;;;;;;7.73;4.90;;;13.90;99.90;;;;;;5018846;28;20476;-72
2024/02/19 12:41:08;;;;;;;10.07;6.30;;;13.50;99.90;;;;;;5016765;28;20983;-72
2024/02/19 12:43:35;;;;;;;14.83;7.30;;;13.50;99.90;;;;;;5014466;28;20970;-72
2024/02/19 12:46:05;;;;;;;14.77;6.67;;;13.40;99.90;;;;;;5017317;28;20526;-72
2024/02/19 12:48:33;;;;;;;17.27;7.77;;;13.20;99.90;;;;;;5017973;28;20499;-72
2024/02/19 12:51:01;;;;;;;8.83;4.70;;;13.10;99.90;;;;;;5015973;28;20894;-73
2024/02/19 12:53:28;;;;;;;9.77;6.50;;;12.90;99.90;;;;;;5022016;28;20679;-71